Time;durP1;ratioP1;P1;durP2;ratioP2;P2;SDS_P1;SDS_P2;PMS_P1;PMS_P2;Temp;Humidity;BMP_temperature;BMP_pressure;BME280_temperature;BME280_humidity;BME280_pressure;Samples;Min_cycle;Max_cycle;Signal;HPM_P1;HPM_P2
2023/11/30 00:00:54;;;;;;;16.40;10.83;;;1.50;84.50;;;0.58;89.72;96703.75;5084427;28;20976;-84
2023/11/30 00:03:21;;;;;;;14.80;10.73;;;1.50;84.40;;;0.62;89.59;96709.53;5097860;28;20464;-83
2023/11/30 00:05:50;;;;;;;14.10;10.87;;;1.50;84.30;;;0.83;89.16;96711.47;5093661;28;20469;-81
2023/11/30 00:08:17;;;;;;;14.50;10.13;;;1.60;84.60;;;0.76;88.55;96706.06;5098415;28;20452;-83
2023/11/30 00:10:44;;;;;;;14.47;9.57;;;1.60;84.10;;;0.60;88.60;96693.78;5083842;28;20932;-73
2023/11/30 00:13:12;;;;;;;13.97;10.17;;;1.60;83.70;;;0.21;88.52;96610.69;5090870;28;20462;-85
2023/11/30 00:15:39;;;;;;;13.57;10.20;;;1.60;84.00;;;0.79;88.52;96710.19;5097207;28;20463;-85
2023/11/30 00:18:07;;;;;;;13.97;9.80;;;1.60;83.80;;;0.61;88.11;96691.94;5092790;28;20480;-78
2023/11/30 00:20:34;;;;;;;12.87;9.63;;;1.60;83.50;;;0.65;88.24;96709.16;5115492;28;20475;-74
2023/11/30 00:23:03;;;;;;;13.20;9.50;;;1.50;83.10;;;0.78;88.11;96703.22;5109487;28;20484;-71
2023/11/30 00:25:32;;;;;;;12.60;8.93;;;1.60;83.50;;;0.94;87.04;96707.50;5101099;28;20509;-78
2023/11/30 00:28:00;;;;;;;12.23;9.47;;;1.60;83.40;;;0.93;86.87;96712.00;5103099;28;20490;-81
2023/11/30 00:30:30;;;;;;;10.23;8.40;;;1.70;83.00;;;0.80;86.63;96696.69;5097767;28;20977;-82
2023/11/30 00:32:57;;;;;;;12.37;9.30;;;1.70;82.60;;;0.72;87.08;96712.75;5098447;28;20448;-72
2023/11/30 00:35:24;;;;;;;11.63;9.70;;;1.70;82.60;;;0.73;87.19;96710.91;5102373;28;20488;-78
2023/11/30 00:37:52;;;;;;;13.50;9.30;;;1.60;82.60;;;0.47;87.50;96686.44;5106132;28;20973;-72
2023/11/30 00:40:20;;;;;;;11.50;9.27;;;1.60;82.70;;;0.56;87.55;96706.63;5113899;28;20454;-82
2023/11/30 00:42:48;;;;;;;12.90;10.43;;;1.50;82.40;;;0.64;87.33;96703.06;5102746;28;20457;-78
2023/11/30 00:45:15;;;;;;;13.10;9.57;;;1.50;82.50;;;0.61;87.33;96691.94;5103048;28;20486;-78
2023/11/30 00:47:43;;;;;;;13.67;9.70;;;1.50;82.50;;;0.60;87.74;96693.78;5105252;28;20452;-81
2023/11/30 00:50:10;;;;;;;13.10;9.57;;;1.50;82.60;;;0.09;87.35;96596.25;5099220;28;20515;-83
2023/11/30 00:52:37;;;;;;;13.50;9.67;;;1.50;82.90;;;0.58;87.81;96681.69;5109210;27;20444;-82
2023/11/30 00:55:05;;;;;;;12.73;9.73;;;1.50;82.80;;;0.49;88.09;96679.13;5093644;28;20508;-79
2023/11/30 00:57:34;;;;;;;13.20;10.30;;;1.40;82.70;;;0.28;88.96;96677.19;5094400;28;20469;-80
2023/11/30 01:00:04;;;;;;;13.77;10.47;;;1.30;82.80;;;0.44;88.98;96686.81;5084681;28;20462;-84
2023/11/30 01:02:31;;;;;;;13.40;10.03;;;1.30;83.20;;;0.59;87.97;96688.66;5105161;28;20450;-78
2023/11/30 01:04:58;;;;;;;11.70;9.80;;;1.40;83.30;;;0.64;87.51;96687.09;5109437;28;20521;-73
2023/11/30 01:07:25;;;;;;;13.33;10.20;;;1.40;83.00;;;0.59;87.63;96662.06;5110486;28;20525;-74
2023/11/30 01:09:52;;;;;;;14.30;9.70;;;1.50;83.00;;;0.70;87.69;96675.72;5119508;28;20445;-75
2023/11/30 01:12:19;;;;;;;12.67;9.47;;;1.50;83.10;;;0.54;87.92;96666.13;5112097;28;20451;-71
2023/11/30 01:14:48;;;;;;;13.27;10.23;;;1.50;83.00;;;0.64;87.58;96680.94;5115198;28;20454;-74
2023/11/30 01:17:15;;;;;;;11.73;9.40;;;1.50;83.10;;;0.51;87.57;96677.09;5118013;28;20454;-70
2023/11/30 01:19:43;;;;;;;15.63;10.30;;;1.50;82.60;;;0.35;87.45;96627.63;5113333;28;20459;-75
2023/11/30 01:22:10;;;;;;;13.33;10.40;;;1.50;82.70;;;0.68;87.27;96671.56;5117567;28;20536;-74
2023/11/30 01:24:37;;;;;;;10.20;9.00;;;1.50;82.60;;;0.77;87.11;96675.78;5112899;28;20476;-74
2023/11/30 01:27:05;;;;;;;12.27;9.60;;;1.60;82.80;;;0.98;85.53;96679.50;5107247;28;20484;-74
2023/11/30 01:29:33;;;;;;;12.37;9.20;;;1.70;82.60;;;0.69;86.30;96679.38;5100615;28;20466;-82
2023/11/30 01:32:01;;;;;;;12.83;10.00;;;1.60;82.00;;;0.71;87.03;96679.22;5098050;28;20455;-77
2023/11/30 01:34:29;;;;;;;12.27;9.67;;;1.50;82.30;;;0.70;86.56;96680.22;5085719;28;20468;-84
2023/11/30 01:36:56;;;;;;;10.17;8.47;;;1.60;82.20;;;0.58;87.17;96687.00;5086856;28;20439;-79
2023/11/30 01:39:23;;;;;;;13.70;9.13;;;1.50;82.20;;;0.63;87.34;96682.78;5075096;28;20509;-83
2023/11/30 01:41:50;;;;;;;12.30;9.80;;;1.50;82.40;;;0.53;87.16;96683.06;5089765;28;20486;-83
2023/11/30 01:44:17;;;;;;;10.20;9.00;;;1.50;82.20;;;0.52;87.81;96686.72;5102785;28;21013;-84
2023/11/30 01:46:45;;;;;;;9.47;8.10;;;1.40;82.30;;;0.78;87.68;96688.06;5101675;27;20476;-82
2023/11/30 01:49:14;;;;;;;11.20;8.70;;;1.50;82.90;;;0.64;87.27;96680.94;5102316;27;20800;-82
2023/11/30 01:51:41;;;;;;;12.07;9.90;;;1.50;82.60;;;0.69;87.10;96681.22;5084546;28;20490;-84
2023/11/30 01:54:09;;;;;;;12.73;9.67;;;1.50;82.50;;;0.52;87.78;96668.09;5087973;28;20454;-81
2023/11/30 01:56:41;;;;;;;13.10;9.40;;;1.50;82.10;;;0.44;87.87;96664.72;5076757;28;20644;-84
2023/11/30 01:59:08;;;;;;;12.23;9.33;;;1.40;82.20;;;0.47;88.44;96667.84;5078692;28;20518;-85
2023/11/30 02:01:37;;;;;;;11.67;9.60;;;1.40;82.70;;;0.65;87.88;96661.31;5085829;28;20486;-86
2023/11/30 02:04:15;;;;;;;11.30;9.10;;;1.40;83.10;;;0.72;87.33;96672.88;5089703;28;20436;-86
2023/11/30 02:06:44;;;;;;;12.77;8.93;;;1.50;83.10;;;0.71;87.03;96649.97;5080781;28;20892;-84
2023/11/30 02:09:12;;;;;;;10.40;8.97;;;1.60;82.60;;;0.64;87.70;96654.34;5078284;28;20504;-78
2023/11/30 02:11:40;;;;;;;10.47;8.20;;;1.60;82.50;;;0.50;88.18;96648.88;5084030;28;20455;-79
2023/11/30 02:14:07;;;;;;;12.80;9.80;;;1.50;82.70;;;0.66;88.01;96655.00;5084311;28;20878;-76
2023/11/30 02:16:34;;;;;;;13.37;9.47;;;1.50;83.00;;;0.73;87.66;96653.25;5080536;28;20458;-82
2023/11/30 02:19:01;;;;;;;13.30;10.00;;;1.60;82.80;;;0.72;87.78;96656.91;5082107;28;20457;-82
2023/11/30 02:21:30;;;;;;;12.33;9.60;;;1.60;82.70;;;0.52;88.58;96654.81;5084356;28;20448;-78
2023/11/30 02:23:59;;;;;;;12.27;9.80;;;1.50;82.80;;;0.61;88.56;96633.47;5073986;28;20462;-82
2023/11/30 02:26:26;;;;;;;12.13;9.10;;;1.50;83.30;;;0.85;86.91;96645.59;5079538;28;20491;-80
2023/11/30 02:28:53;;;;;;;12.00;9.73;;;1.60;82.90;;;0.65;87.66;96645.38;5075874;28;20625;-81
2023/11/30 02:31:22;;;;;;;10.33;8.23;;;1.60;82.80;;;0.59;88.23;96635.50;5081149;28;20452;-84
2023/11/30 02:33:49;;;;;;;10.80;8.80;;;1.50;82.90;;;0.36;89.34;96639.06;5084468;28;20518;-82
2023/11/30 02:36:16;;;;;;;12.43;9.57;;;1.40;83.00;;;0.58;89.42;96612.56;5086477;28;20754;-84
2023/11/30 02:38:43;;;;;;;11.37;9.60;;;1.40;84.00;;;0.65;88.34;96634.72;5075485;28;20476;-80
2023/11/30 02:41:12;;;;;;;12.17;8.90;;;1.50;84.00;;;0.52;88.89;96625.59;5091766;28;20465;-84
2023/11/30 02:43:39;;;;;;;12.00;9.00;;;1.50;83.60;;;0.56;89.35;96623.38;5091321;28;20525;-82
2023/11/30 02:46:09;;;;;;;15.03;10.43;;;1.40;83.90;;;0.45;89.72;96616.72;5083116;28;20909;-85
2023/11/30 02:48:38;;;;;;;11.87;9.07;;;1.40;83.90;;;0.40;89.89;96606.63;5080780;28;20552;-81
2023/11/30 02:51:05;;;;;;;16.53;9.00;;;1.40;83.70;;;0.47;89.38;96612.03;5085557;28;20456;-83
2023/11/30 02:53:33;;;;;;;15.13;9.20;;;1.40;83.70;;;0.71;88.71;96607.41;5080139;28;20457;-85
2023/11/30 02:56:00;;;;;;;11.57;8.87;;;1.50;84.00;;;0.72;88.27;96602.91;5080868;28;20468;-78
2023/11/30 02:58:28;;;;;;;11.07;8.30;;;1.50;83.60;;;0.44;88.22;96577.88;5080239;28;20477;-82
2023/11/30 03:00:56;;;;;;;12.60;8.63;;;1.50;83.50;;;0.48;89.08;96612.88;5081441;28;21102;-78
2023/11/30 03:03:23;;;;;;;12.60;9.50;;;1.40;83.40;;;0.42;89.87;96617.91;5092723;28;20460;-82
2023/11/30 03:05:51;;;;;;;12.77;8.80;;;1.40;83.60;;;0.48;89.31;96602.25;5084027;28;20464;-83
2023/11/30 03:08:18;;;;;;;11.33;8.97;;;1.40;83.80;;;0.66;89.16;96612.44;5088878;28;20964;-78
2023/11/30 03:10:45;;;;;;;9.73;8.50;;;1.50;84.00;;;0.48;89.47;96607.56;5095988;28;20497;-82
2023/11/30 03:13:13;;;;;;;12.07;9.77;;;1.40;83.80;;;0.65;89.81;96602.84;5090797;28;20461;-81
2023/11/30 03:15:46;;;;;;;11.90;9.77;;;1.40;84.20;;;0.34;89.04;96580.81;5092781;28;20518;-77
2023/11/30 03:18:14;;;;;;;9.70;8.20;;;1.40;83.90;;;0.31;89.89;96593.66;5080845;28;20459;-77
2023/11/30 03:20:41;;;;;;;10.30;8.30;;;1.30;83.90;;;0.14;91.02;96615.91;5086550;28;20460;-81
2023/11/30 03:23:09;;;;;;;11.33;8.23;;;1.20;84.10;;;0.24;90.63;96601.53;5081320;28;20544;-77
2023/11/30 03:25:36;;;;;;;13.00;9.53;;;1.20;84.70;;;0.30;91.04;96602.63;5087439;28;20530;-79
2023/11/30 03:28:04;;;;;;;12.40;9.20;;;1.20;85.00;;;0.33;90.80;96591.63;5092159;28;20521;-77
2023/11/30 03:30:31;;;;;;;12.43;10.13;;;1.20;85.00;;;0.06;91.61;96586.78;5085747;28;21139;-81
2023/11/30 03:33:00;;;;;;;11.10;8.70;;;1.10;84.90;;;-0.04;92.44;96584.41;5102826;27;20463;-78
2023/11/30 03:35:27;;;;;;;12.00;9.90;;;1.00;85.70;;;0.17;92.37;96582.03;5088018;28;20460;-81
2023/11/30 03:37:54;;;;;;;15.30;9.90;;;1.00;86.30;;;0.04;92.80;96580.84;5078579;28;20448;-78
2023/11/30 03:40:21;;;;;;;13.87;9.53;;;1.00;86.50;;;0.10;92.25;96579.28;5085846;28;21491;-81
2023/11/30 03:42:49;;;;;;;11.40;9.00;;;1.00;86.60;;;0.15;91.68;96582.22;5084064;28;20458;-81
2023/11/30 03:45:16;;;;;;;11.07;9.13;;;1.10;86.30;;;-0.31;92.13;96509.72;5091993;28;20456;-86
2023/11/30 03:47:43;;;;;;;12.50;9.87;;;1.10;86.50;;;0.10;91.94;96579.28;5089743;28;20471;-81
2023/11/30 03:50:12;;;;;;;14.40;9.10;;;1.10;86.30;;;0.12;91.87;96582.59;5085878;28;20464;-82
2023/11/30 03:52:39;;;;;;;11.73;9.40;;;1.00;86.20;;;0.08;91.67;96586.63;5087882;28;21097;-80
2023/11/30 03:55:07;;;;;;;11.97;9.80;;;1.00;85.80;;;0.16;91.59;96586.50;5087000;28;20448;-80
2023/11/30 03:57:35;;;;;;;13.40;9.70;;;1.10;86.40;;;0.18;91.68;96587.16;5076995;28;20544;-82
2023/11/30 04:00:02;;;;;;;14.00;9.80;;;1.00;86.10;;;0.22;90.83;96576.97;5093665;28;20445;-72
2023/11/30 04:02:30;;;;;;;12.60;10.27;;;1.10;85.70;;;0.19;90.50;96591.44;5086780;28;20449;-81
2023/11/30 04:04:57;;;;;;;11.70;9.80;;;1.10;85.30;;;0.07;90.76;96585.78;5101620;27;20482;-80
2023/11/30 04:07:29;;;;;;;11.80;9.50;;;1.00;84.60;;;0.12;90.22;96593.22;5084211;28;20471;-77
2023/11/30 04:09:57;;;;;;;10.37;8.80;;;1.00;84.90;;;-0.49;89.87;96517.22;5089105;28;20449;-81
2023/11/30 04:12:25;;;;;;;11.47;8.60;;;1.00;84.60;;;0.13;89.67;96593.00;5093774;28;21261;-76
2023/11/30 04:14:52;;;;;;;13.63;9.80;;;1.00;84.50;;;-0.38;89.46;96514.13;5082747;28;20869;-78
2023/11/30 04:17:20;;;;;;;13.30;9.17;;;1.00;84.20;;;-0.01;89.51;96584.03;5092318;28;20929;-79
2023/11/30 04:19:47;;;;;;;10.73;8.90;;;1.00;84.10;;;0.11;89.81;96581.75;5088724;28;20452;-73
2023/11/30 04:22:14;;;;;;;11.40;9.40;;;1.00;84.30;;;0.06;90.09;96583.31;5088399;28;20504;-78
2023/11/30 04:24:42;;;;;;;12.90;9.87;;;0.90;84.40;;;0.08;90.10;96602.56;5086469;28;22314;-80
2023/11/30 04:27:10;;;;;;;11.27;8.70;;;0.90;84.60;;;0.12;90.34;96598.53;5085610;28;20469;-78
2023/11/30 04:29:37;;;;;;;12.50;9.27;;;0.90;85.40;;;0.21;89.85;96597.41;5096374;28;20471;-74
2023/11/30 04:32:06;;;;;;;15.20;9.60;;;0.90;85.60;;;-0.04;90.83;96594.22;5093969;28;20460;-81
2023/11/30 04:34:33;;;;;;;11.27;9.07;;;0.90;85.20;;;-0.08;91.29;96595.59;5104976;28;20447;-84
2023/11/30 04:37:00;;;;;;;13.40;10.23;;;0.90;85.50;;;-0.12;92.21;96589.00;5093651;28;20449;-81
2023/11/30 04:39:28;;;;;;;15.57;10.50;;;0.80;85.80;;;-0.23;92.70;96576.97;5088390;28;20448;-78
2023/11/30 04:41:56;;;;;;;14.13;10.07;;;0.80;86.40;;;-0.22;93.37;96589.28;5092601;28;20510;-83
2023/11/30 04:44:25;;;;;;;12.33;9.13;;;0.70;87.00;;;-0.20;93.15;96581.94;5093137;28;20452;-84
2023/11/30 04:46:52;;;;;;;14.30;9.80;;;0.70;87.30;;;-0.15;93.84;96582.22;5097268;28;20475;-84
2023/11/30 04:49:19;;;;;;;12.53;9.90;;;0.70;87.90;;;-0.15;93.19;96568.94;5083728;28;20461;-81
2023/11/30 04:51:47;;;;;;;12.80;10.03;;;0.70;88.00;;;-0.58;93.16;96503.22;5099289;27;20469;-72
2023/11/30 04:54:14;;;;;;;13.00;9.27;;;0.70;88.00;;;-0.39;93.89;96554.09;5086859;28;20442;-83
2023/11/30 04:56:41;;;;;;;12.83;10.13;;;0.60;87.50;;;-0.47;93.50;96539.88;5091671;28;20465;-83
2023/11/30 04:59:10;;;;;;;13.13;9.77;;;0.60;88.00;;;-0.46;93.93;96569.91;5089647;28;20978;-81
2023/11/30 05:01:37;;;;;;;15.00;9.97;;;0.50;88.10;;;-0.74;94.54;96555.44;5095364;28;20513;-82
2023/11/30 05:04:04;;;;;;;14.47;9.90;;;0.40;88.60;;;-0.65;95.42;96572.09;5088849;28;20448;-80
2023/11/30 05:06:32;;;;;;;13.43;10.20;;;0.30;89.60;;;-1.28;94.72;96468.91;5090694;28;20498;-85
2023/11/30 05:09:00;;;;;;;16.03;10.80;;;0.30;89.80;;;-0.77;95.38;96557.59;5090970;28;20450;-83
2023/11/30 05:11:27;;;;;;;13.00;9.80;;;0.20;90.00;;;-0.77;95.54;96560.25;5097558;28;20512;-83
2023/11/30 05:13:54;;;;;;;11.83;9.70;;;0.10;90.20;;;-0.94;96.53;96557.75;5097491;28;20447;-82
2023/11/30 05:16:22;;;;;;;12.13;9.83;;;0.10;90.60;;;-0.91;96.43;96568.00;5098579;28;20463;-80
2023/11/30 05:18:49;;;;;;;13.43;10.73;;;0.00;90.50;;;-1.02;96.88;96553.34;5095909;28;20448;-84
2023/11/30 05:21:17;;;;;;;15.53;11.50;;;0.00;90.80;;;-1.07;96.95;96558.31;5112615;28;20435;-73
2023/11/30 05:23:45;;;;;;;14.23;11.23;;;-0.10;90.80;;;-1.05;97.32;96558.16;5102559;28;20461;-74
2023/11/30 05:26:12;;;;;;;13.77;11.07;;;-0.10;91.40;;;-1.10;97.55;96552.56;5113118;28;20490;-72
2023/11/30 05:28:39;;;;;;;13.00;11.40;;;-0.20;91.50;;;-1.15;97.55;96537.19;5112101;28;20431;-73
2023/11/30 05:31:07;;;;;;;15.90;11.03;;;-0.10;91.80;;;-1.17;97.28;96547.97;5109450;28;20487;-77
2023/11/30 05:33:36;;;;;;;17.17;11.20;;;-0.20;91.60;;;-1.11;97.37;96545.63;5104483;28;20487;-72
2023/11/30 05:36:03;;;;;;;15.50;12.00;;;-0.30;91.60;;;-1.11;98.11;96545.63;5107693;28;20450;-75
2023/11/30 05:38:30;;;;;;;21.97;12.50;;;-0.30;92.20;;;-1.11;97.57;96545.63;5110053;28;20450;-71
2023/11/30 05:40:58;;;;;;;15.90;11.70;;;-0.30;92.10;;;-1.18;97.64;96543.66;5089840;28;20445;-75
2023/11/30 05:43:25;;;;;;;16.03;12.33;;;-0.30;91.90;;;-1.17;97.44;96540.00;5083534;28;20452;-72
2023/11/30 05:45:53;;;;;;;16.73;11.48;;;-0.30;92.10;;;-1.16;97.37;96539.00;5085580;28;20449;-72
2023/11/30 05:48:20;;;;;;;16.53;11.40;;;-0.30;91.90;;;-1.21;97.59;96536.06;5078662;28;20223;-73
2023/11/30 05:50:49;;;;;;;16.83;11.73;;;-0.30;92.10;;;-1.20;97.34;96536.91;5086460;28;20457;-74
2023/11/30 05:53:16;;;;;;;14.80;10.43;;;-0.40;91.90;;;-1.29;97.09;96530.81;5077692;28;20583;-71
2023/11/30 05:55:43;;;;;;;13.47;10.93;;;-0.40;91.90;;;-1.24;97.81;96533.78;5085668;28;20466;-71
2023/11/30 05:58:10;;;;;;;16.37;12.37;;;-0.50;92.40;;;-1.28;97.45;96535.16;5093582;28;20473;-72
2023/11/30 06:00:38;;;;;;;13.80;11.60;;;-0.50;92.60;;;-1.23;97.16;96538.09;5083084;28;20955;-72
2023/11/30 06:03:05;;;;;;;17.83;11.20;;;-0.40;92.90;;;-1.30;98.29;96555.69;5085198;28;21054;-73
2023/11/30 06:05:32;;;;;;;17.43;11.97;;;-0.40;92.60;;;-1.43;97.97;96524.47;5079697;28;20506;-78
2023/11/30 06:08:01;;;;;;;14.10;11.87;;;-0.40;92.60;;;-1.21;98.28;96530.78;5082285;28;20477;-77
2023/11/30 06:10:28;;;;;;;16.13;12.17;;;-0.20;92.60;;;-1.15;98.13;96535.34;5084088;28;20540;-76
2023/11/30 06:12:55;;;;;;;17.90;12.50;;;-0.20;92.40;;;-1.05;97.80;96526.34;5078766;28;20458;-73
2023/11/30 06:15:22;;;;;;;19.00;12.30;;;-0.10;92.10;;;-1.03;97.41;96524.34;5077027;28;20487;-76
2023/11/30 06:17:50;;;;;;;18.93;13.67;;;-0.10;91.90;;;-1.12;97.24;96522.78;5085708;28;20457;-79
2023/11/30 06:20:18;;;;;;;17.80;12.70;;;-0.10;91.70;;;-0.96;96.93;96537.72;5095241;27;20444;-73
2023/11/30 06:22:45;;;;;;;16.70;13.60;;;-0.10;91.80;;;-1.05;96.72;96529.00;5082219;28;20484;-79
2023/11/30 06:25:13;;;;;;;22.20;13.30;;;-0.10;91.50;;;-1.05;96.34;96523.69;5079071;28;20465;-78
2023/11/30 06:27:41;;;;;;;19.37;13.90;;;-0.10;91.30;;;-1.08;96.12;96518.75;5075531;28;20476;-76
2023/11/30 06:30:09;;;;;;;17.93;12.57;;;0.00;91.20;;;-0.89;96.04;96541.31;5079397;28;21543;-70
2023/11/30 06:32:36;;;;;;;18.93;13.40;;;-0.10;90.90;;;-0.89;95.39;96549.25;5092695;28;20466;-74
2023/11/30 06:35:05;;;;;;;17.20;12.60;;;-0.10;91.00;;;-0.89;95.47;96542.13;5081435;28;20454;-74
2023/11/30 06:37:32;;;;;;;19.63;13.33;;;-0.10;90.90;;;-0.93;95.73;96540.84;5081075;28;21510;-73
2023/11/30 06:39:59;;;;;;;23.00;14.17;;;0.00;90.80;;;-0.90;95.15;96535.16;5084216;28;20471;-76
2023/11/30 06:42:28;;;;;;;17.20;11.47;;;-0.10;90.60;;;-1.02;95.23;96533.94;5090368;28;20950;-73
2023/11/30 06:44:55;;;;;;;17.10;12.80;;;-0.10;90.80;;;-0.97;95.20;96528.94;5079123;28;20445;-71
2023/11/30 06:47:22;;;;;;;19.57;13.80;;;-0.10;90.70;;;-0.98;94.98;96524.66;5084402;28;20528;-78
2023/11/30 06:49:50;;;;;;;20.57;13.70;;;-0.10;90.40;;;-1.10;95.77;96534.81;5080083;28;20501;-75
2023/11/30 06:52:17;;;;;;;21.70;14.07;;;-0.10;90.40;;;-1.20;96.94;96521.81;5084070;28;20451;-75
2023/11/30 06:54:44;;;;;;;19.90;12.37;;;-0.20;90.70;;;-1.12;96.37;96518.28;5079199;28;20218;-75
2023/11/30 06:57:11;;;;;;;16.50;12.50;;;-0.10;90.90;;;-1.10;96.29;96521.56;5080496;28;20459;-74
2023/11/30 06:59:42;;;;;;;19.73;14.10;;;-0.20;90.90;;;-1.18;96.25;96509.22;5090769;28;20978;-76
2023/11/30 07:02:09;;;;;;;19.60;13.03;;;-0.20;90.60;;;-1.10;96.30;96505.66;5080275;28;20469;-75
2023/11/30 07:04:36;;;;;;;19.50;13.20;;;-0.10;90.60;;;-1.09;96.20;96517.09;5080493;28;20475;-73
2023/11/30 07:07:04;;;;;;;16.33;12.13;;;-0.10;90.60;;;-1.17;96.74;96520.66;5082226;28;20473;-76
2023/11/30 07:09:31;;;;;;;18.00;14.40;;;-0.20;90.50;;;-1.15;96.22;96511.50;5084586;28;20454;-72
2023/11/30 07:11:58;;;;;;;17.63;12.90;;;-0.20;90.60;;;-1.15;95.90;96508.84;5083143;28;20455;-75
2023/11/30 07:14:26;;;;;;;16.13;13.30;;;-0.20;90.60;;;-1.20;95.78;96511.22;5084066;28;20460;-75
2023/11/30 07:16:54;;;;;;;19.57;13.20;;;-0.20;90.60;;;-1.27;96.80;96509.44;5087704;28;20454;-76
2023/11/30 07:19:21;;;;;;;18.03;13.10;;;-0.30;90.70;;;-1.19;96.28;96525.31;5087613;28;20451;-78
2023/11/30 07:21:50;;;;;;;20.50;13.50;;;-0.30;90.70;;;-1.16;96.59;96530.25;5102453;27;20459;-73
2023/11/30 07:24:17;;;;;;;21.33;12.50;;;-0.30;91.00;;;-1.19;96.29;96543.88;5080992;28;20447;-70
2023/11/30 07:26:47;;;;;;;20.90;14.37;;;-0.30;90.80;;;-1.93;95.84;96428.63;5087688;28;20812;-71
2023/11/30 07:29:15;;;;;;;19.20;13.83;;;-0.30;90.70;;;-1.51;97.39;96535.94;5091220;28;20445;-70
2023/11/30 07:31:44;;;;;;;18.53;13.70;;;-0.40;90.70;;;-1.38;96.82;96532.72;5087435;28;20450;-71
2023/11/30 07:34:13;;;;;;;19.47;14.20;;;-0.40;91.10;;;-1.37;96.55;96509.69;5091371;28;20522;-80
2023/11/30 07:36:40;;;;;;;22.10;14.30;;;-0.40;91.00;;;-1.30;95.93;96527.38;5083315;28;20485;-79
2023/11/30 07:39:09;;;;;;;23.13;13.80;;;-0.40;91.10;;;-1.26;96.01;96530.50;5081789;28;20469;-74
2023/11/30 07:41:36;;;;;;;21.30;13.70;;;-0.40;91.00;;;-1.22;95.89;96521.19;5099231;28;20458;-79
2023/11/30 07:44:05;;;;;;;18.90;14.10;;;-0.30;91.00;;;-1.29;96.11;96517.56;5076590;28;20460;-76
2023/11/30 07:46:32;;;;;;;17.90;14.07;;;-0.30;90.50;;;-1.27;95.90;96531.50;5075313;28;20523;-75
2023/11/30 07:48:59;;;;;;;17.87;13.47;;;-0.20;90.30;;;-1.18;95.84;96527.75;5086157;28;20515;-70
2023/11/30 07:51:28;;;;;;;18.10;13.53;;;-0.20;90.20;;;-0.88;96.41;96535.81;5075749;28;20460;-79
2023/11/30 07:53:55;;;;;;;23.30;14.60;;;-0.10;90.70;;;-0.72;95.16;96534.84;5076269;28;20774;-75
2023/11/30 07:56:22;;;;;;;17.93;13.37;;;0.10;90.30;;;-0.43;94.85;96488.13;5082097;28;20933;-78
2023/11/30 07:58:50;;;;;;;18.40;12.77;;;0.50;90.70;;;-0.35;91.83;96508.44;5073158;28;20474;-77
2023/11/30 08:01:17;;;;;;;19.73;13.53;;;0.50;87.70;;;-0.55;91.20;96505.50;5075473;28;20944;-76
2023/11/30 08:03:44;;;;;;;19.13;14.40;;;0.40;85.50;;;-0.73;91.55;96487.28;5081147;28;20450;-77
2023/11/30 08:06:11;;;;;;;19.60;14.20;;;0.40;85.40;;;-0.48;91.59;96514.38;5077736;28;20954;-77
2023/11/30 08:08:40;;;;;;;18.80;14.07;;;0.40;85.70;;;-0.47;89.93;96518.66;5085935;28;20478;-76
2023/11/30 08:11:08;;;;;;;19.50;13.07;;;0.50;85.20;;;-0.49;90.20;96517.22;5088612;28;20920;-76
2023/11/30 08:13:35;;;;;;;22.07;14.90;;;0.50;84.10;;;-0.27;89.14;96519.97;5087824;28;20461;-76
2023/11/30 08:16:04;;;;;;;17.50;14.30;;;0.60;84.00;;;-0.27;88.58;96504.88;5088124;28;20547;-75
2023/11/30 08:18:31;;;;;;;17.53;12.80;;;0.70;83.50;;;-0.30;88.66;96516.66;5087905;28;20445;-76
2023/11/30 08:21:02;;;;;;;19.00;14.00;;;0.70;82.80;;;-0.17;87.74;96517.84;5087761;28;20501;-77
2023/11/30 08:23:29;;;;;;;17.23;13.33;;;0.70;82.40;;;-0.18;87.80;96506.41;5088261;28;20533;-77
2023/11/30 08:25:58;;;;;;;14.50;11.93;;;0.80;82.20;;;-0.06;87.15;96505.94;5086514;28;20792;-76
2023/11/30 08:28:25;;;;;;;20.30;13.67;;;0.90;81.80;;;0.17;85.87;96516.44;5087816;28;20625;-76
2023/11/30 08:30:52;;;;;;;16.30;11.87;;;1.00;81.60;;;0.17;85.05;96508.47;5101742;28;20912;-77
2023/11/30 08:33:20;;;;;;;17.90;14.33;;;1.20;81.00;;;-0.42;85.63;96467.69;5067710;28;20807;-76
2023/11/30 08:35:47;;;;;;;17.23;13.07;;;1.00;80.30;;;-0.04;86.46;96503.91;5083187;28;20438;-77
2023/11/30 08:38:15;;;;;;;16.23;13.43;;;1.00;80.80;;;-0.12;85.98;96496.88;5089049;28;20479;-77
2023/11/30 08:40:43;;;;;;;19.50;14.13;;;1.00;80.50;;;0.12;86.12;96500.25;5090149;28;20546;-77
2023/11/30 08:43:12;;;;;;;18.23;13.50;;;1.00;81.10;;;0.20;85.19;96500.13;5082813;28;20451;-76
2023/11/30 08:45:39;;;;;;;18.17;14.07;;;1.10;80.80;;;0.14;85.08;96506.19;5100957;28;20453;-78
2023/11/30 08:48:06;;;;;;;16.90;13.17;;;1.10;80.50;;;0.45;83.91;96507.75;5084390;28;20504;-76
2023/11/30 08:50:34;;;;;;;17.00;12.60;;;1.20;80.50;;;0.14;83.85;96500.88;5088864;28;20457;-76
2023/11/30 08:53:01;;;;;;;16.13;12.60;;;1.30;79.80;;;0.24;83.99;96511.19;5088338;28;20452;-76
2023/11/30 08:55:30;;;;;;;14.63;12.33;;;1.20;79.70;;;0.45;82.97;96518.38;5088935;28;20956;-76
2023/11/30 08:57:57;;;;;;;21.33;13.13;;;1.40;79.90;;;0.60;82.32;96507.69;5083898;28;20502;-76
2023/11/30 09:00:26;;;;;;;17.90;14.23;;;1.50;79.60;;;0.69;82.07;96519.06;5081684;28;20456;-76
2023/11/30 09:02:54;;;;;;;16.17;12.93;;;1.50;79.20;;;0.47;82.04;96521.69;5085673;28;20444;-77
2023/11/30 09:05:21;;;;;;;17.73;13.20;;;1.50;78.80;;;0.59;81.08;96497.25;5084825;28;20502;-76
2023/11/30 09:07:48;;;;;;;13.70;11.90;;;1.50;78.60;;;0.75;80.55;96523.59;5087092;28;20460;-76
2023/11/30 09:10:15;;;;;;;16.00;13.87;;;1.60;78.60;;;0.52;81.09;96527.25;5104108;28;20549;-77
2023/11/30 09:12:43;;;;;;;14.37;12.57;;;1.50;78.20;;;0.53;81.24;96520.94;5088599;28;20446;-75
2023/11/30 09:15:12;;;;;;;15.17;12.17;;;1.50;78.20;;;0.49;80.84;96519.66;5092413;28;20475;-76
2023/11/30 09:17:41;;;;;;;17.90;12.97;;;1.50;78.00;;;0.60;80.76;96520.19;5097368;28;20445;-76
2023/11/30 09:20:09;;;;;;;17.20;11.93;;;1.50;77.80;;;0.61;80.20;96508.53;5110843;28;20457;-75
2023/11/30 09:22:37;;;;;;;12.53;11.20;;;1.50;77.70;;;0.78;79.71;96501.94;5096750;28;20556;-74
2023/11/30 09:25:05;;;;;;;14.50;12.07;;;1.60;77.60;;;0.77;79.84;96492.31;5103919;28;20445;-76
2023/11/30 09:27:33;;;;;;;15.30;13.00;;;1.70;77.60;;;1.08;78.68;96491.16;5096418;28;20445;-74
2023/11/30 09:30:01;;;;;;;15.50;12.93;;;1.90;77.20;;;1.23;77.41;96485.75;5105877;28;20482;-75
2023/11/30 09:32:28;;;;;;;15.30;12.73;;;2.10;76.90;;;1.44;76.97;96497.34;5106779;28;20580;-76
2023/11/30 09:34:57;;;;;;;15.60;11.07;;;2.30;76.40;;;1.32;76.06;96486.44;5105146;28;20450;-76
2023/11/30 09:37:24;;;;;;;14.40;11.77;;;2.40;75.50;;;1.32;75.83;96496.25;5101735;28;20458;-74
2023/11/30 09:39:52;;;;;;;12.23;11.00;;;2.30;75.10;;;1.11;75.97;96496.06;5100160;28;20471;-76
2023/11/30 09:42:19;;;;;;;14.33;11.53;;;2.20;74.70;;;0.93;76.46;96464.66;5091603;28;20441;-76
2023/11/30 09:44:50;;;;;;;13.60;11.57;;;2.00;74.60;;;1.27;75.66;96472.88;5086286;28;20457;-75
2023/11/30 09:47:21;;;;;;;16.10;11.50;;;2.10;74.60;;;1.03;75.53;96461.66;5082818;28;20950;-75
2023/11/30 09:49:48;;;;;;;12.37;9.97;;;2.20;74.50;;;1.29;75.51;96476.19;5088510;28;20697;-77
2023/11/30 09:52:18;;;;;;;12.90;11.10;;;2.20;74.60;;;1.45;74.94;96479.56;5088438;28;20461;-76
2023/11/30 09:54:45;;;;;;;11.63;9.67;;;2.30;74.50;;;1.30;74.43;96467.19;5089042;28;20809;-76
2023/11/30 09:57:13;;;;;;;12.80;9.90;;;2.30;74.10;;;1.41;74.32;96447.97;5084345;28;20455;-77
2023/11/30 09:59:40;;;;;;;12.83;11.43;;;2.30;73.80;;;1.33;74.49;96456.13;5088594;28;20450;-76
2023/11/30 10:02:10;;;;;;;12.73;10.40;;;2.30;73.60;;;1.07;74.60;96446.94;5082568;28;20867;-76
2023/11/30 10:04:40;;;;;;;12.90;10.87;;;2.20;73.40;;;0.90;74.77;96453.56;5083609;28;20579;-76
2023/11/30 10:07:07;;;;;;;13.07;10.33;;;2.00;73.30;;;1.03;75.05;96451.00;5086681;28;20445;-77
2023/11/30 10:09:37;;;;;;;14.23;10.80;;;2.00;73.60;;;1.21;74.17;96441.72;5093688;28;20571;-77
2023/11/30 10:12:05;;;;;;;14.13;10.80;;;2.10;73.50;;;1.37;74.28;96433.44;5096747;28;20909;-77
2023/11/30 10:14:32;;;;;;;15.70;10.43;;;2.10;73.60;;;1.32;74.40;96433.19;5110021;28;20494;-76
2023/11/30 10:17:00;;;;;;;14.10;10.57;;;2.20;73.50;;;1.42;73.92;96438.97;5102798;28;20954;-77
2023/11/30 10:19:28;;;;;;;13.43;10.10;;;2.20;73.30;;;1.54;73.21;96425.13;5094423;28;20533;-76